CYPX

Puvirnituq Airport

Airport
ICAO code
CYPX
IATA Code
YPX
Summary
ICAO Region
NAM
ICAO Territory
Location

Puvirnituq, Quebec,

Serving
Puvirnituq
Elevation
74 ft
Coordinates
60° 3' 1" N , 77° 17' 12" W
KCC
Airport RE
Landing on Contaminated Runways
Metar
Observation
CYPX 280400Z AUTO 32013G18KT 9SM CLR M16/M19 A2983 RMK SLP105
Station
Povungnituq
Date/Time
2022-11-28 04:00:00
Wind direction
320°
Wind speed
13 kts
Lowest cloud amount
n/a
Temperature
-16°C
Dew point
-19°C
Humidity
77%
Weather condition
n/a

Description

Puvirnituq Airport, is located 1 NM north of Puvirnituq, Quebec, Canada.

Climatology

Subarctic climate (Köppen climate classification Dfc) - long, usually very cold winters, and short, cool to mild summers.

Runways

Designator Length Width Surface Rops
1/19 1528 30 GVL No/No

Airport map

Aerial View

SKYbrary Partners:

Safety knowledge contributed by: